sensor_id;sensor_type;location;lat;lon;timestamp;temperature;humidity
516;DHT22;244;48.508;9.052;2023-06-26T00:00:09;20.60;5.70
516;DHT22;244;48.508;9.052;2023-06-26T00:02:36;20.60;5.80
516;DHT22;244;48.508;9.052;2023-06-26T00:05:04;20.60;5.90
516;DHT22;244;48.508;9.052;2023-06-26T00:07:31;20.50;6.00
516;DHT22;244;48.508;9.052;2023-06-26T00:09:59;20.50;6.10
516;DHT22;244;48.508;9.052;2023-06-26T00:12:29;20.50;6.30
516;DHT22;244;48.508;9.052;2023-06-26T00:14:57;20.40;6.40
516;DHT22;244;48.508;9.052;2023-06-26T00:17:24;20.40;6.40
516;DHT22;244;48.508;9.052;2023-06-26T00:19:51;20.30;6.50
516;DHT22;244;48.508;9.052;2023-06-26T00:22:18;20.30;6.60
516;DHT22;244;48.508;9.052;2023-06-26T00:24:45;20.30;6.70
516;DHT22;244;48.508;9.052;2023-06-26T00:27:12;20.30;6.80
516;DHT22;244;48.508;9.052;2023-06-26T00:29:40;20.20;6.90
516;DHT22;244;48.508;9.052;2023-06-26T00:32:07;20.20;7.00
516;DHT22;244;48.508;9.052;2023-06-26T00:34:35;20.10;7.00
516;DHT22;244;48.508;9.052;2023-06-26T00:37:02;20.10;7.10
516;DHT22;244;48.508;9.052;2023-06-26T00:39:29;20.00;7.20
516;DHT22;244;48.508;9.052;2023-06-26T00:41:56;20.00;7.30
516;DHT22;244;48.508;9.052;2023-06-26T00:44:23;20.00;7.30
516;DHT22;244;48.508;9.052;2023-06-26T00:46:51;19.90;7.40
516;DHT22;244;48.508;9.052;2023-06-26T00:49:18;19.80;7.50
516;DHT22;244;48.508;9.052;2023-06-26T00:51:45;19.80;7.60
516;DHT22;244;48.508;9.052;2023-06-26T00:54:13;19.80;7.70
516;DHT22;244;48.508;9.052;2023-06-26T00:56:45;19.70;7.80
516;DHT22;244;48.508;9.052;2023-06-26T00:59:13;19.70;7.90
516;DHT22;244;48.508;9.052;2023-06-26T01:01:39;19.60;7.90
516;DHT22;244;48.508;9.052;2023-06-26T01:04:08;19.60;7.90
516;DHT22;244;48.508;9.052;2023-06-26T01:06:44;19.50;8.00
516;DHT22;244;48.508;9.052;2023-06-26T01:09:16;19.50;8.20
516;DHT22;244;48.508;9.052;2023-06-26T01:11:44;19.50;8.30
516;DHT22;244;48.508;9.052;2023-06-26T01:14:11;19.40;8.30
516;DHT22;244;48.508;9.052;2023-06-26T01:16:38;19.40;8.50
516;DHT22;244;48.508;9.052;2023-06-26T01:19:13;19.40;9.10
516;DHT22;244;48.508;9.052;2023-06-26T01:21:43;19.40;8.70
516;DHT22;244;48.508;9.052;2023-06-26T01:24:16;19.30;8.70
516;DHT22;244;48.508;9.052;2023-06-26T01:26:49;19.30;8.80
516;DHT22;244;48.508;9.052;2023-06-26T01:29:17;19.30;8.80
516;DHT22;244;48.508;9.052;2023-06-26T01:31:45;19.20;8.90
516;DHT22;244;48.508;9.052;2023-06-26T01:34:15;19.20;9.00
516;DHT22;244;48.508;9.052;2023-06-26T01:36:42;19.20;9.70
516;DHT22;244;48.508;9.052;2023-06-26T01:39:09;19.20;9.10
516;DHT22;244;48.508;9.052;2023-06-26T01:41:36;19.10;9.10
516;DHT22;244;48.508;9.052;2023-06-26T01:44:16;19.10;9.30
516;DHT22;244;48.508;9.052;2023-06-26T01:46:50;19.10;9.30
516;DHT22;244;48.508;9.052;2023-06-26T01:49:21;19.00;9.30
516;DHT22;244;48.508;9.052;2023-06-26T01:51:55;19.00;9.30
516;DHT22;244;48.508;9.052;2023-06-26T01:54:25;19.00;9.30
516;DHT22;244;48.508;9.052;2023-06-26T01:56:57;18.90;10.00
516;DHT22;244;48.508;9.052;2023-06-26T01:59:28;18.90;9.50
516;DHT22;244;48.508;9.052;2023-06-26T02:01:58;18.90;9.60
516;DHT22;244;48.508;9.052;2023-06-26T02:04:29;18.80;9.60
516;DHT22;244;48.508;9.052;2023-06-26T02:06:56;18.80;9.70
516;DHT22;244;48.508;9.052;2023-06-26T02:09:23;18.70;9.70
516;DHT22;244;48.508;9.052;2023-06-26T02:11:50;18.70;9.90
516;DHT22;244;48.508;9.052;2023-06-26T02:14:17;18.70;10.70
516;DHT22;244;48.508;9.052;2023-06-26T02:16:45;18.70;10.10
516;DHT22;244;48.508;9.052;2023-06-26T02:19:12;18.60;10.20
516;DHT22;244;48.508;9.052;2023-06-26T02:21:47;18.60;10.30
516;DHT22;244;48.508;9.052;2023-06-26T02:24:13;18.60;11.00
516;DHT22;244;48.508;9.052;2023-06-26T02:26:40;18.60;10.40
516;DHT22;244;48.508;9.052;2023-06-26T02:29:07;18.60;10.50
516;DHT22;244;48.508;9.052;2023-06-26T02:31:34;18.50;10.50
516;DHT22;244;48.508;9.052;2023-06-26T02:34:02;18.50;10.50
516;DHT22;244;48.508;9.052;2023-06-26T02:36:29;18.50;10.70
516;DHT22;244;48.508;9.052;2023-06-26T02:38:56;18.50;10.80
516;DHT22;244;48.508;9.052;2023-06-26T02:41:23;18.50;10.80
516;DHT22;244;48.508;9.052;2023-06-26T02:43:50;18.40;10.90
516;DHT22;244;48.508;9.052;2023-06-26T02:46:17;18.40;10.90
516;DHT22;244;48.508;9.052;2023-06-26T02:48:43;18.40;11.00
516;DHT22;244;48.508;9.052;2023-06-26T02:51:12;18.40;11.70
516;DHT22;244;48.508;9.052;2023-06-26T02:53:38;18.30;11.10
516;DHT22;244;48.508;9.052;2023-06-26T02:56:05;18.30;11.10
516;DHT22;244;48.508;9.052;2023-06-26T02:58:32;18.30;11.90
516;DHT22;244;48.508;9.052;2023-06-26T03:00:59;18.30;11.50
516;DHT22;244;48.508;9.052;2023-06-26T03:03:26;18.20;11.50
516;DHT22;244;48.508;9.052;2023-06-26T03:05:53;18.20;11.50
516;DHT22;244;48.508;9.052;2023-06-26T03:08:21;18.20;11.50
516;DHT22;244;48.508;9.052;2023-06-26T03:10:48;18.10;11.40
516;DHT22;244;48.508;9.052;2023-06-26T03:13:15;18.10;11.40
516;DHT22;244;48.508;9.052;2023-06-26T03:15:42;18.10;11.40
516;DHT22;244;48.508;9.052;2023-06-26T03:18:09;18.10;11.40
516;DHT22;244;48.508;9.052;2023-06-26T03:20:36;18.10;11.40
516;DHT22;244;48.508;9.052;2023-06-26T03:23:03;18.10;11.40
516;DHT22;244;48.508;9.052;2023-06-26T03:25:31;18.10;11.40
516;DHT22;244;48.508;9.052;2023-06-26T03:27:58;18.00;11.30
516;DHT22;244;48.508;9.052;2023-06-26T03:30:24;18.00;11.40
516;DHT22;244;48.508;9.052;2023-06-26T03:32:51;18.10;11.60
516;DHT22;244;48.508;9.052;2023-06-26T03:35:19;18.00;11.70
516;DHT22;244;48.508;9.052;2023-06-26T03:37:45;18.10;11.70
516;DHT22;244;48.508;9.052;2023-06-26T03:40:12;18.10;11.70
516;DHT22;244;48.508;9.052;2023-06-26T03:42:42;18.10;11.80
516;DHT22;244;48.508;9.052;2023-06-26T03:45:09;18.10;11.80
516;DHT22;244;48.508;9.052;2023-06-26T03:47:35;18.10;11.90
516;DHT22;244;48.508;9.052;2023-06-26T03:50:02;18.10;11.80
516;DHT22;244;48.508;9.052;2023-06-26T03:52:29;18.10;11.80
516;DHT22;244;48.508;9.052;2023-06-26T03:54:57;18.10;11.80
516;DHT22;244;48.508;9.052;2023-06-26T03:57:24;18.10;11.80
516;DHT22;244;48.508;9.052;2023-06-26T03:59:52;18.10;11.80
516;DHT22;244;48.508;9.052;2023-06-26T04:02:20;18.20;11.80
516;DHT22;244;48.508;9.052;2023-06-26T04:04:46;18.10;12.40
516;DHT22;244;48.508;9.052;2023-06-26T04:07:13;18.20;12.00
516;DHT22;244;48.508;9.052;2023-06-26T04:09:40;18.20;12.00
516;DHT22;244;48.508;9.052;2023-06-26T04:12:07;18.20;12.00
516;DHT22;244;48.508;9.052;2023-06-26T04:14:34;18.30;12.00
516;DHT22;244;48.508;9.052;2023-06-26T04:17:03;18.30;12.00
516;DHT22;244;48.508;9.052;2023-06-26T04:19:30;18.30;12.00
516;DHT22;244;48.508;9.052;2023-06-26T04:21:57;18.30;12.00
516;DHT22;244;48.508;9.052;2023-06-26T04:24:24;18.40;12.00
516;DHT22;244;48.508;9.052;2023-06-26T04:26:51;18.40;12.00
516;DHT22;244;48.508;9.052;2023-06-26T04:29:17;18.40;12.00
516;DHT22;244;48.508;9.052;2023-06-26T04:31:44;18.50;11.90
516;DHT22;244;48.508;9.052;2023-06-26T04:34:14;18.50;11.90
516;DHT22;244;48.508;9.052;2023-06-26T04:36:41;18.60;11.80
516;DHT22;244;48.508;9.052;2023-06-26T04:39:13;18.60;11.80
516;DHT22;244;48.508;9.052;2023-06-26T04:41:41;18.60;11.70
516;DHT22;244;48.508;9.052;2023-06-26T04:44:08;18.70;12.50
516;DHT22;244;48.508;9.052;2023-06-26T04:46:35;18.70;11.80
516;DHT22;244;48.508;9.052;2023-06-26T04:49:02;18.80;11.90
516;DHT22;244;48.508;9.052;2023-06-26T04:51:30;18.80;11.90
516;DHT22;244;48.508;9.052;2023-06-26T04:53:57;18.90;12.00
516;DHT22;244;48.508;9.052;2023-06-26T04:56:24;18.90;11.90
516;DHT22;244;48.508;9.052;2023-06-26T04:58:50;19.00;12.00
516;DHT22;244;48.508;9.052;2023-06-26T05:01:17;19.00;12.00
516;DHT22;244;48.508;9.052;2023-06-26T05:03:44;19.00;11.90
516;DHT22;244;48.508;9.052;2023-06-26T05:06:13;19.10;11.80
516;DHT22;244;48.508;9.052;2023-06-26T05:08:41;19.10;11.70
516;DHT22;244;48.508;9.052;2023-06-26T05:11:08;19.20;11.70
516;DHT22;244;48.508;9.052;2023-06-26T05:13:35;19.30;11.70
516;DHT22;244;48.508;9.052;2023-06-26T05:16:02;19.30;11.60
516;DHT22;244;48.508;9.052;2023-06-26T05:18:28;19.40;11.60
516;DHT22;244;48.508;9.052;2023-06-26T05:20:56;19.40;11.50
516;DHT22;244;48.508;9.052;2023-06-26T05:23:25;19.50;11.50
516;DHT22;244;48.508;9.052;2023-06-26T05:25:54;19.50;11.50
516;DHT22;244;48.508;9.052;2023-06-26T05:28:21;19.60;11.50
516;DHT22;244;48.508;9.052;2023-06-26T05:30:50;19.60;11.40
516;DHT22;244;48.508;9.052;2023-06-26T05:33:18;19.60;11.40
516;DHT22;244;48.508;9.052;2023-06-26T05:35:46;19.70;11.30
516;DHT22;244;48.508;9.052;2023-06-26T05:38:14;19.70;11.30
516;DHT22;244;48.508;9.052;2023-06-26T05:40:41;19.80;11.30
516;DHT22;244;48.508;9.052;2023-06-26T05:43:10;19.90;11.20
516;DHT22;244;48.508;9.052;2023-06-26T05:45:37;20.00;11.10
516;DHT22;244;48.508;9.052;2023-06-26T05:48:04;20.10;11.10
516;DHT22;244;48.508;9.052;2023-06-26T05:50:32;20.10;11.00
516;DHT22;244;48.508;9.052;2023-06-26T05:52:59;20.20;10.90
516;DHT22;244;48.508;9.052;2023-06-26T05:55:29;20.30;10.80
516;DHT22;244;48.508;9.052;2023-06-26T05:57:58;20.40;10.70
516;DHT22;244;48.508;9.052;2023-06-26T06:00:27;20.50;10.60
516;DHT22;244;48.508;9.052;2023-06-26T06:02:55;20.60;10.60
516;DHT22;244;48.508;9.052;2023-06-26T06:05:22;20.60;10.50
516;DHT22;244;48.508;9.052;2023-06-26T06:07:49;20.80;10.50
516;DHT22;244;48.508;9.052;2023-06-26T06:10:16;20.80;10.30
516;DHT22;244;48.508;9.052;2023-06-26T06:12:43;20.90;10.20
516;DHT22;244;48.508;9.052;2023-06-26T06:15:10;21.00;10.10
516;DHT22;244;48.508;9.052;2023-06-26T06:17:38;21.10;10.10
516;DHT22;244;48.508;9.052;2023-06-26T06:20:05;21.20;10.00
516;DHT22;244;48.508;9.052;2023-06-26T06:22:32;21.30;9.80
516;DHT22;244;48.508;9.052;2023-06-26T06:24:59;21.40;9.80
516;DHT22;244;48.508;9.052;2023-06-26T06:27:26;21.40;9.60
516;DHT22;244;48.508;9.052;2023-06-26T06:29:53;21.60;9.60
516;DHT22;244;48.508;9.052;2023-06-26T06:32:20;21.70;9.50
516;DHT22;244;48.508;9.052;2023-06-26T06:34:48;21.80;9.30
516;DHT22;244;48.508;9.052;2023-06-26T06:37:15;21.90;9.40
516;DHT22;244;48.508;9.052;2023-06-26T06:39:42;22.00;9.30
516;DHT22;244;48.508;9.052;2023-06-26T06:42:09;22.10;9.20
516;DHT22;244;48.508;9.052;2023-06-26T06:44:36;22.20;9.10
516;DHT22;244;48.508;9.052;2023-06-26T06:47:03;22.30;9.00
516;DHT22;244;48.508;9.052;2023-06-26T06:49:30;22.40;8.90
516;DHT22;244;48.508;9.052;2023-06-26T06:51:58;22.50;8.80
516;DHT22;244;48.508;9.052;2023-06-26T06:54:26;22.60;8.70
516;DHT22;244;48.508;9.052;2023-06-26T06:56:53;22.70;8.60
516;DHT22;244;48.508;9.052;2023-06-26T06:59:20;22.90;8.50
516;DHT22;244;48.508;9.052;2023-06-26T07:01:47;23.00;8.30
516;DHT22;244;48.508;9.052;2023-06-26T07:04:14;23.10;8.20
516;DHT22;244;48.508;9.052;2023-06-26T07:06:41;23.20;8.00
516;DHT22;244;48.508;9.052;2023-06-26T07:09:09;23.40;7.90
516;DHT22;244;48.508;9.052;2023-06-26T07:11:36;23.50;7.80
516;DHT22;244;48.508;9.052;2023-06-26T07:14:03;23.60;7.60
516;DHT22;244;48.508;9.052;2023-06-26T07:16:30;23.70;7.50
516;DHT22;244;48.508;9.052;2023-06-26T07:18:57;23.80;7.30
516;DHT22;244;48.508;9.052;2023-06-26T07:21:24;23.90;7.20
516;DHT22;244;48.508;9.052;2023-06-26T07:23:50;24.00;7.10
516;DHT22;244;48.508;9.052;2023-06-26T07:26:19;24.20;7.00
516;DHT22;244;48.508;9.052;2023-06-26T07:28:47;24.30;6.80
516;DHT22;244;48.508;9.052;2023-06-26T07:31:15;24.40;6.40
516;DHT22;244;48.508;9.052;2023-06-26T07:33:42;24.60;6.60
516;DHT22;244;48.508;9.052;2023-06-26T07:36:09;24.80;6.70
516;DHT22;244;48.508;9.052;2023-06-26T07:38:36;24.90;6.40
516;DHT22;244;48.508;9.052;2023-06-26T07:41:03;25.10;6.20
516;DHT22;244;48.508;9.052;2023-06-26T07:43:31;25.30;6.00
516;DHT22;244;48.508;9.052;2023-06-26T07:45:58;25.40;5.70
516;DHT22;244;48.508;9.052;2023-06-26T07:48:25;25.60;5.60
516;DHT22;244;48.508;9.052;2023-06-26T07:50:52;25.70;5.30
516;DHT22;244;48.508;9.052;2023-06-26T07:53:19;25.80;5.10
516;DHT22;244;48.508;9.052;2023-06-26T07:55:46;26.00;4.90
516;DHT22;244;48.508;9.052;2023-06-26T07:58:13;26.10;4.60
516;DHT22;244;48.508;9.052;2023-06-26T08:00:41;26.30;4.50
516;DHT22;244;48.508;9.052;2023-06-26T08:03:08;26.40;4.20
516;DHT22;244;48.508;9.052;2023-06-26T08:05:35;26.50;4.00
516;DHT22;244;48.508;9.052;2023-06-26T08:08:02;26.60;3.70
516;DHT22;244;48.508;9.052;2023-06-26T08:10:29;26.80;3.50
516;DHT22;244;48.508;9.052;2023-06-26T08:12:56;26.90;3.20
516;DHT22;244;48.508;9.052;2023-06-26T08:15:24;27.10;3.00
516;DHT22;244;48.508;9.052;2023-06-26T08:17:52;27.20;2.80
516;DHT22;244;48.508;9.052;2023-06-26T08:20:19;27.30;2.40
516;DHT22;244;48.508;9.052;2023-06-26T08:22:46;27.40;2.10
516;DHT22;244;48.508;9.052;2023-06-26T08:25:14;27.60;1.70
516;DHT22;244;48.508;9.052;2023-06-26T08:27:41;27.70;1.40
516;DHT22;244;48.508;9.052;2023-06-26T08:30:09;27.80;1.20
516;DHT22;244;48.508;9.052;2023-06-26T08:32:37;28.00;1.00
516;DHT22;244;48.508;9.052;2023-06-26T08:35:06;28.10;1.00
516;DHT22;244;48.508;9.052;2023-06-26T08:37:35;28.20;1.00
516;DHT22;244;48.508;9.052;2023-06-26T08:40:03;28.30;1.00
516;DHT22;244;48.508;9.052;2023-06-26T08:42:30;28.40;1.00
516;DHT22;244;48.508;9.052;2023-06-26T08:44:57;28.50;1.00
516;DHT22;244;48.508;9.052;2023-06-26T08:47:24;28.60;1.00
516;DHT22;244;48.508;9.052;2023-06-26T08:49:55;28.70;1.00
516;DHT22;244;48.508;9.052;2023-06-26T08:52:30;28.80;1.00
516;DHT22;244;48.508;9.052;2023-06-26T08:54:59;28.90;1.00
516;DHT22;244;48.508;9.052;2023-06-26T08:57:30;28.90;1.00
516;DHT22;244;48.508;9.052;2023-06-26T08:59:58;29.00;1.00
516;DHT22;244;48.508;9.052;2023-06-26T09:02:25;29.10;1.00
516;DHT22;244;48.508;9.052;2023-06-26T09:04:53;29.10;1.00
516;DHT22;244;48.508;9.052;2023-06-26T09:07:20;29.20;1.00
516;DHT22;244;48.508;9.052;2023-06-26T09:09:48;29.30;1.00
516;DHT22;244;48.508;9.052;2023-06-26T09:12:15;29.40;1.00
516;DHT22;244;48.508;9.052;2023-06-26T09:14:42;29.40;1.00
516;DHT22;244;48.508;9.052;2023-06-26T09:17:09;29.60;1.00
516;DHT22;244;48.508;9.052;2023-06-26T09:19:37;29.60;1.00
516;DHT22;244;48.508;9.052;2023-06-26T09:22:05;29.70;1.00
516;DHT22;244;48.508;9.052;2023-06-26T09:24:37;29.80;1.00
516;DHT22;244;48.508;9.052;2023-06-26T09:27:05;29.90;1.00
516;DHT22;244;48.508;9.052;2023-06-26T09:29:33;30.10;1.00
516;DHT22;244;48.508;9.052;2023-06-26T09:32:00;30.30;1.00
516;DHT22;244;48.508;9.052;2023-06-26T09:34:30;30.50;1.00
516;DHT22;244;48.508;9.052;2023-06-26T09:36:58;30.80;1.00
516;DHT22;244;48.508;9.052;2023-06-26T09:39:25;30.90;1.00
516;DHT22;244;48.508;9.052;2023-06-26T09:41:52;31.10;1.00
516;DHT22;244;48.508;9.052;2023-06-26T09:44:23;31.30;1.00
516;DHT22;244;48.508;9.052;2023-06-26T09:46:50;31.40;1.00
516;DHT22;244;48.508;9.052;2023-06-26T09:49:19;31.50;1.00
516;DHT22;244;48.508;9.052;2023-06-26T09:51:46;31.50;1.00
516;DHT22;244;48.508;9.052;2023-06-26T09:54:16;31.50;1.00
516;DHT22;244;48.508;9.052;2023-06-26T09:56:44;31.40;1.00
516;DHT22;244;48.508;9.052;2023-06-26T09:59:14;31.40;1.00
516;DHT22;244;48.508;9.052;2023-06-26T10:01:45;31.40;1.00
516;DHT22;244;48.508;9.052;2023-06-26T10:04:13;31.40;1.00
516;DHT22;244;48.508;9.052;2023-06-26T10:06:44;31.40;1.00
516;DHT22;244;48.508;9.052;2023-06-26T10:09:13;31.50;1.00
516;DHT22;244;48.508;9.052;2023-06-26T10:12:03;31.50;1.00
516;DHT22;244;48.508;9.052;2023-06-26T10:14:33;31.60;1.00
516;DHT22;244;48.508;9.052;2023-06-26T10:17:04;31.80;1.00
516;DHT22;244;48.508;9.052;2023-06-26T10:19:33;31.90;1.00
516;DHT22;244;48.508;9.052;2023-06-26T10:22:01;32.00;1.00
516;DHT22;244;48.508;9.052;2023-06-26T10:24:32;32.10;1.00
516;DHT22;244;48.508;9.052;2023-06-26T10:27:06;32.20;1.00
516;DHT22;244;48.508;9.052;2023-06-26T10:29:35;32.30;1.00
516;DHT22;244;48.508;9.052;2023-06-26T10:32:06;32.40;1.00
516;DHT22;244;48.508;9.052;2023-06-26T10:34:33;32.40;1.00
516;DHT22;244;48.508;9.052;2023-06-26T10:37:01;32.40;1.00
516;DHT22;244;48.508;9.052;2023-06-26T10:39:48;32.30;1.00
516;DHT22;244;48.508;9.052;2023-06-26T10:42:17;32.30;1.00
516;DHT22;244;48.508;9.052;2023-06-26T10:44:52;32.30;1.00
516;DHT22;244;48.508;9.052;2023-06-26T10:47:31;32.30;1.00
516;DHT22;244;48.508;9.052;2023-06-26T10:50:20;32.20;1.00
516;DHT22;244;48.508;9.052;2023-06-26T10:53:08;32.10;1.00
516;DHT22;244;48.508;9.052;2023-06-26T10:55:35;32.00;1.00
516;DHT22;244;48.508;9.052;2023-06-26T10:58:02;32.00;1.00
516;DHT22;244;48.508;9.052;2023-06-26T11:00:29;32.00;1.00
516;DHT22;244;48.508;9.052;2023-06-26T11:02:57;31.90;1.00
516;DHT22;244;48.508;9.052;2023-06-26T11:05:27;31.90;1.00
516;DHT22;244;48.508;9.052;2023-06-26T11:08:05;31.80;1.00
516;DHT22;244;48.508;9.052;2023-06-26T11:10:51;31.80;1.00
516;DHT22;244;48.508;9.052;2023-06-26T11:13:19;31.70;1.00
516;DHT22;244;48.508;9.052;2023-06-26T11:15:46;31.70;1.00
516;DHT22;244;48.508;9.052;2023-06-26T11:18:14;31.80;1.00
516;DHT22;244;48.508;9.052;2023-06-26T11:20:41;31.80;1.00
516;DHT22;244;48.508;9.052;2023-06-26T11:23:11;31.80;1.00
516;DHT22;244;48.508;9.052;2023-06-26T11:25:38;31.80;1.00
516;DHT22;244;48.508;9.052;2023-06-26T11:28:05;31.80;1.00
516;DHT22;244;48.508;9.052;2023-06-26T11:30:32;31.80;1.00
516;DHT22;244;48.508;9.052;2023-06-26T11:33:06;31.80;1.00
516;DHT22;244;48.508;9.052;2023-06-26T11:35:34;31.80;1.00
516;DHT22;244;48.508;9.052;2023-06-26T11:38:02;31.90;1.00
516;DHT22;244;48.508;9.052;2023-06-26T11:40:31;32.00;1.00
516;DHT22;244;48.508;9.052;2023-06-26T11:42:59;32.20;1.00
516;DHT22;244;48.508;9.052;2023-06-26T11:45:30;32.30;1.00
516;DHT22;244;48.508;9.052;2023-06-26T11:47:58;32.30;1.00
516;DHT22;244;48.508;9.052;2023-06-26T11:50:26;32.20;1.00
516;DHT22;244;48.508;9.052;2023-06-26T11:52:56;32.00;1.00
516;DHT22;244;48.508;9.052;2023-06-26T11:55:25;32.00;1.00
516;DHT22;244;48.508;9.052;2023-06-26T11:57:54;32.00;1.00
516;DHT22;244;48.508;9.052;2023-06-26T12:00:21;32.00;1.00
516;DHT22;244;48.508;9.052;2023-06-26T12:02:50;32.00;1.00
516;DHT22;244;48.508;9.052;2023-06-26T12:05:18;32.10;1.00
516;DHT22;244;48.508;9.052;2023-06-26T12:07:48;32.20;1.00
516;DHT22;244;48.508;9.052;2023-06-26T12:10:17;32.30;1.00
516;DHT22;244;48.508;9.052;2023-06-26T12:12:45;32.40;1.00
516;DHT22;244;48.508;9.052;2023-06-26T12:15:15;32.50;1.00
516;DHT22;244;48.508;9.052;2023-06-26T12:17:42;32.60;1.00
516;DHT22;244;48.508;9.052;2023-06-26T12:20:18;32.50;1.00
516;DHT22;244;48.508;9.052;2023-06-26T12:22:46;32.50;1.00
516;DHT22;244;48.508;9.052;2023-06-26T12:25:14;32.60;1.00
516;DHT22;244;48.508;9.052;2023-06-26T12:27:44;32.70;1.00
516;DHT22;244;48.508;9.052;2023-06-26T12:30:15;32.70;1.00
516;DHT22;244;48.508;9.052;2023-06-26T12:32:44;32.80;1.00
516;DHT22;244;48.508;9.052;2023-06-26T12:35:12;32.80;1.00
516;DHT22;244;48.508;9.052;2023-06-26T12:37:39;32.90;1.00
516;DHT22;244;48.508;9.052;2023-06-26T12:40:16;32.90;1.00
516;DHT22;244;48.508;9.052;2023-06-26T12:42:53;33.10;1.00
516;DHT22;244;48.508;9.052;2023-06-26T12:45:22;33.10;1.00
516;DHT22;244;48.508;9.052;2023-06-26T12:47:49;33.10;1.00
516;DHT22;244;48.508;9.052;2023-06-26T12:50:16;33.00;1.00
516;DHT22;244;48.508;9.052;2023-06-26T12:52:43;33.10;1.00
516;DHT22;244;48.508;9.052;2023-06-26T12:55:10;33.00;1.00
516;DHT22;244;48.508;9.052;2023-06-26T12:57:37;33.00;1.00
516;DHT22;244;48.508;9.052;2023-06-26T13:00:06;33.00;1.00
516;DHT22;244;48.508;9.052;2023-06-26T13:02:40;32.90;1.00
516;DHT22;244;48.508;9.052;2023-06-26T13:05:07;33.00;1.00
516;DHT22;244;48.508;9.052;2023-06-26T13:07:34;33.00;1.00
516;DHT22;244;48.508;9.052;2023-06-26T13:10:01;33.00;1.00
516;DHT22;244;48.508;9.052;2023-06-26T13:12:28;33.10;1.00
516;DHT22;244;48.508;9.052;2023-06-26T13:14:56;33.10;1.00
516;DHT22;244;48.508;9.052;2023-06-26T13:17:24;33.10;1.00
516;DHT22;244;48.508;9.052;2023-06-26T13:19:51;33.10;1.00
516;DHT22;244;48.508;9.052;2023-06-26T13:22:18;33.00;1.00
516;DHT22;244;48.508;9.052;2023-06-26T13:24:45;32.90;1.00
516;DHT22;244;48.508;9.052;2023-06-26T13:27:14;32.90;1.00
516;DHT22;244;48.508;9.052;2023-06-26T13:29:42;32.90;1.00
516;DHT22;244;48.508;9.052;2023-06-26T13:32:09;32.70;1.00
516;DHT22;244;48.508;9.052;2023-06-26T13:34:37;32.70;1.00
516;DHT22;244;48.508;9.052;2023-06-26T13:37:04;32.70;1.00
516;DHT22;244;48.508;9.052;2023-06-26T13:39:32;32.80;1.00
516;DHT22;244;48.508;9.052;2023-06-26T13:41:59;32.90;1.00
516;DHT22;244;48.508;9.052;2023-06-26T13:44:25;33.00;1.00
516;DHT22;244;48.508;9.052;2023-06-26T13:46:52;33.00;1.00
516;DHT22;244;48.508;9.052;2023-06-26T13:49:19;33.10;1.00
516;DHT22;244;48.508;9.052;2023-06-26T13:51:47;33.30;1.00
516;DHT22;244;48.508;9.052;2023-06-26T13:54:14;33.50;1.00
516;DHT22;244;48.508;9.052;2023-06-26T13:56:41;33.80;1.00
516;DHT22;244;48.508;9.052;2023-06-26T13:59:08;34.00;1.00
516;DHT22;244;48.508;9.052;2023-06-26T14:01:35;34.20;1.00
516;DHT22;244;48.508;9.052;2023-06-26T14:04:02;34.40;1.00
516;DHT22;244;48.508;9.052;2023-06-26T14:06:29;34.70;1.00
516;DHT22;244;48.508;9.052;2023-06-26T14:08:59;34.90;1.00
516;DHT22;244;48.508;9.052;2023-06-26T14:11:26;34.90;1.00
516;DHT22;244;48.508;9.052;2023-06-26T14:13:53;35.10;1.00
516;DHT22;244;48.508;9.052;2023-06-26T14:16:20;35.10;1.00
516;DHT22;244;48.508;9.052;2023-06-26T14:18:47;35.30;1.00
516;DHT22;244;48.508;9.052;2023-06-26T14:21:15;35.30;1.00
516;DHT22;244;48.508;9.052;2023-06-26T14:23:42;35.30;1.00
516;DHT22;244;48.508;9.052;2023-06-26T14:26:10;35.20;1.00
516;DHT22;244;48.508;9.052;2023-06-26T14:28:38;35.20;1.00
516;DHT22;244;48.508;9.052;2023-06-26T14:31:05;35.40;1.00
516;DHT22;244;48.508;9.052;2023-06-26T14:33:32;35.50;1.00
516;DHT22;244;48.508;9.052;2023-06-26T14:35:59;35.70;1.00
516;DHT22;244;48.508;9.052;2023-06-26T14:38:26;35.70;1.00
516;DHT22;244;48.508;9.052;2023-06-26T14:40:53;35.80;1.00
516;DHT22;244;48.508;9.052;2023-06-26T14:43:21;35.70;1.00
516;DHT22;244;48.508;9.052;2023-06-26T14:45:49;35.80;1.00
516;DHT22;244;48.508;9.052;2023-06-26T14:48:16;35.80;1.00
516;DHT22;244;48.508;9.052;2023-06-26T14:50:44;35.80;1.00
516;DHT22;244;48.508;9.052;2023-06-26T14:53:11;35.60;1.00
516;DHT22;244;48.508;9.052;2023-06-26T14:55:38;35.60;1.00
516;DHT22;244;48.508;9.052;2023-06-26T14:58:05;35.50;1.00
516;DHT22;244;48.508;9.052;2023-06-26T15:00:33;35.30;1.00
516;DHT22;244;48.508;9.052;2023-06-26T15:03:00;34.90;1.00
516;DHT22;244;48.508;9.052;2023-06-26T15:05:27;34.70;1.00
516;DHT22;244;48.508;9.052;2023-06-26T15:07:54;34.60;1.00
516;DHT22;244;48.508;9.052;2023-06-26T15:10:21;34.40;1.00
516;DHT22;244;48.508;9.052;2023-06-26T15:12:48;34.40;1.00
516;DHT22;244;48.508;9.052;2023-06-26T15:15:15;34.30;1.00
516;DHT22;244;48.508;9.052;2023-06-26T15:17:44;34.30;1.00
516;DHT22;244;48.508;9.052;2023-06-26T15:20:11;34.30;1.00
516;DHT22;244;48.508;9.052;2023-06-26T15:22:38;34.20;1.00
516;DHT22;244;48.508;9.052;2023-06-26T15:25:07;34.10;1.00
516;DHT22;244;48.508;9.052;2023-06-26T15:27:34;34.00;1.00
516;DHT22;244;48.508;9.052;2023-06-26T15:30:01;33.80;1.00
516;DHT22;244;48.508;9.052;2023-06-26T15:32:28;33.80;1.00
516;DHT22;244;48.508;9.052;2023-06-26T15:34:56;33.70;1.00
516;DHT22;244;48.508;9.052;2023-06-26T15:37:23;33.70;1.00
516;DHT22;244;48.508;9.052;2023-06-26T15:39:49;33.70;1.00
516;DHT22;244;48.508;9.052;2023-06-26T15:42:16;33.70;1.00
516;DHT22;244;48.508;9.052;2023-06-26T15:44:43;33.50;1.00
516;DHT22;244;48.508;9.052;2023-06-26T15:47:10;33.40;1.00
516;DHT22;244;48.508;9.052;2023-06-26T15:49:37;33.30;1.00
516;DHT22;244;48.508;9.052;2023-06-26T15:52:06;33.20;1.00
516;DHT22;244;48.508;9.052;2023-06-26T15:54:33;33.20;1.00
516;DHT22;244;48.508;9.052;2023-06-26T15:57:00;33.20;1.00
516;DHT22;244;48.508;9.052;2023-06-26T15:59:27;33.20;1.00
516;DHT22;244;48.508;9.052;2023-06-26T16:01:55;33.10;1.00
516;DHT22;244;48.508;9.052;2023-06-26T16:04:21;32.90;1.00
516;DHT22;244;48.508;9.052;2023-06-26T16:06:48;32.80;1.00
516;DHT22;244;48.508;9.052;2023-06-26T16:09:16;32.70;1.00
516;DHT22;244;48.508;9.052;2023-06-26T16:11:43;32.60;1.00
516;DHT22;244;48.508;9.052;2023-06-26T16:14:10;32.50;1.00
516;DHT22;244;48.508;9.052;2023-06-26T16:16:37;32.40;1.00
516;DHT22;244;48.508;9.052;2023-06-26T16:19:04;32.30;1.00
516;DHT22;244;48.508;9.052;2023-06-26T16:21:31;32.10;1.00
516;DHT22;244;48.508;9.052;2023-06-26T16:23:59;32.00;1.00
516;DHT22;244;48.508;9.052;2023-06-26T16:26:28;31.80;1.00
516;DHT22;244;48.508;9.052;2023-06-26T16:28:54;31.70;1.00
516;DHT22;244;48.508;9.052;2023-06-26T16:31:21;31.60;1.00
516;DHT22;244;48.508;9.052;2023-06-26T16:33:48;31.40;1.00
516;DHT22;244;48.508;9.052;2023-06-26T16:36:15;31.20;1.00
516;DHT22;244;48.508;9.052;2023-06-26T16:38:42;31.10;1.00
516;DHT22;244;48.508;9.052;2023-06-26T16:41:09;31.00;1.00
516;DHT22;244;48.508;9.052;2023-06-26T16:43:37;30.90;1.00
516;DHT22;244;48.508;9.052;2023-06-26T16:46:04;30.90;1.00
516;DHT22;244;48.508;9.052;2023-06-26T16:48:31;30.80;1.00
516;DHT22;244;48.508;9.052;2023-06-26T16:50:58;30.70;1.00